sensor_id;sensor_type;location;lat;lon;timestamp;P1;durP1;ratioP1;P2;durP2;ratioP2
71838;SDS011;59687;37.520;15.068;2022-10-30T00:01:13;12.65;;;6.80;;
71838;SDS011;59687;37.520;15.068;2022-10-30T00:03:40;12.00;;;6.50;;
71838;SDS011;59687;37.520;15.068;2022-10-30T00:06:08;13.48;;;7.20;;
71838;SDS011;59687;37.520;15.068;2022-10-30T00:08:35;10.73;;;6.43;;
71838;SDS011;59687;37.520;15.068;2022-10-30T00:11:10;8.85;;;5.93;;
71838;SDS011;59687;37.520;15.068;2022-10-30T00:13:38;10.20;;;5.78;;
71838;SDS011;59687;37.520;15.068;2022-10-30T00:16:06;11.68;;;6.00;;
71838;SDS011;59687;37.520;15.068;2022-10-30T00:18:34;12.00;;;6.97;;
71838;SDS011;59687;37.520;15.068;2022-10-30T00:21:09;10.20;;;6.73;;
71838;SDS011;59687;37.520;15.068;2022-10-30T00:23:38;13.13;;;6.47;;
71838;SDS011;59687;37.520;15.068;2022-10-30T00:26:11;12.82;;;6.38;;
71838;SDS011;59687;37.520;15.068;2022-10-30T00:28:40;10.65;;;5.28;;
71838;SDS011;59687;37.520;15.068;2022-10-30T00:31:07;10.73;;;5.97;;
71838;SDS011;59687;37.520;15.068;2022-10-30T00:33:34;10.70;;;6.57;;
71838;SDS011;59687;37.520;15.068;2022-10-30T00:36:04;10.32;;;5.90;;
71838;SDS011;59687;37.520;15.068;2022-10-30T00:38:34;11.48;;;6.50;;
71838;SDS011;59687;37.520;15.068;2022-10-30T00:41:02;11.95;;;6.20;;
71838;SDS011;59687;37.520;15.068;2022-10-30T00:43:36;12.20;;;7.40;;
71838;SDS011;59687;37.520;15.068;2022-10-30T00:46:09;15.83;;;7.40;;
71838;SDS011;59687;37.520;15.068;2022-10-30T00:48:43;12.65;;;6.97;;
71838;SDS011;59687;37.520;15.068;2022-10-30T00:51:13;12.85;;;6.40;;
71838;SDS011;59687;37.520;15.068;2022-10-30T00:53:44;10.80;;;6.43;;
71838;SDS011;59687;37.520;15.068;2022-10-30T00:56:15;11.45;;;6.13;;
71838;SDS011;59687;37.520;15.068;2022-10-30T00:58:48;9.83;;;5.40;;
71838;SDS011;59687;37.520;15.068;2022-10-30T01:01:23;11.20;;;6.00;;
71838;SDS011;59687;37.520;15.068;2022-10-30T01:03:57;11.65;;;6.38;;
71838;SDS011;59687;37.520;15.068;2022-10-30T01:06:29;12.18;;;6.35;;
71838;SDS011;59687;37.520;15.068;2022-10-30T01:08:59;13.40;;;6.47;;
71838;SDS011;59687;37.520;15.068;2022-10-30T01:11:29;10.60;;;6.20;;
71838;SDS011;59687;37.520;15.068;2022-10-30T01:13:59;12.10;;;6.25;;
71838;SDS011;59687;37.520;15.068;2022-10-30T01:38:54;15.30;;;6.60;;
71838;SDS011;59687;37.520;15.068;2022-10-30T01:41:26;10.32;;;6.60;;
71838;SDS011;59687;37.520;15.068;2022-10-30T01:43:54;13.20;;;6.80;;
71838;SDS011;59687;37.520;15.068;2022-10-30T02:00:09;14.05;;;6.32;;
71838;SDS011;59687;37.520;15.068;2022-10-30T02:02:44;11.10;;;6.18;;
71838;SDS011;59687;37.520;15.068;2022-10-30T02:05:42;12.93;;;6.33;;
71838;SDS011;59687;37.520;15.068;2022-10-30T02:08:17;11.07;;;5.93;;
71838;SDS011;59687;37.520;15.068;2022-10-30T02:10:46;13.07;;;6.30;;
71838;SDS011;59687;37.520;15.068;2022-10-30T02:13:15;12.88;;;6.03;;
71838;SDS011;59687;37.520;15.068;2022-10-30T02:15:44;13.40;;;6.00;;
71838;SDS011;59687;37.520;15.068;2022-10-30T02:18:13;11.53;;;6.23;;
71838;SDS011;59687;37.520;15.068;2022-10-30T02:20:43;12.25;;;5.97;;
71838;SDS011;59687;37.520;15.068;2022-10-30T02:23:10;11.93;;;6.15;;
71838;SDS011;59687;37.520;15.068;2022-10-30T02:25:44;13.18;;;6.10;;
71838;SDS011;59687;37.520;15.068;2022-10-30T02:28:12;11.88;;;5.53;;
71838;SDS011;59687;37.520;15.068;2022-10-30T02:30:42;13.13;;;5.83;;
71838;SDS011;59687;37.520;15.068;2022-10-30T02:33:12;8.88;;;5.43;;
71838;SDS011;59687;37.520;15.068;2022-10-30T02:35:39;12.18;;;5.85;;
71838;SDS011;59687;37.520;15.068;2022-10-30T02:38:06;9.98;;;5.53;;
71838;SDS011;59687;37.520;15.068;2022-10-30T02:40:35;12.90;;;5.90;;
71838;SDS011;59687;37.520;15.068;2022-10-30T02:43:02;9.83;;;6.03;;
71838;SDS011;59687;37.520;15.068;2022-10-30T02:45:29;11.38;;;7.65;;
71838;SDS011;59687;37.520;15.068;2022-10-30T02:48:00;10.43;;;6.25;;
71838;SDS011;59687;37.520;15.068;2022-10-30T02:50:30;11.57;;;7.03;;
71838;SDS011;59687;37.520;15.068;2022-10-30T02:53:00;10.52;;;5.78;;
71838;SDS011;59687;37.520;15.068;2022-10-30T02:55:27;11.63;;;6.23;;
71838;SDS011;59687;37.520;15.068;2022-10-30T02:57:54;9.25;;;5.82;;
71838;SDS011;59687;37.520;15.068;2022-10-30T03:00:21;11.00;;;6.35;;
71838;SDS011;59687;37.520;15.068;2022-10-30T03:02:53;11.02;;;6.30;;
71838;SDS011;59687;37.520;15.068;2022-10-30T03:05:23;12.23;;;6.70;;
71838;SDS011;59687;37.520;15.068;2022-10-30T03:07:50;9.27;;;5.83;;
71838;SDS011;59687;37.520;15.068;2022-10-30T03:10:20;11.23;;;5.97;;
71838;SDS011;59687;37.520;15.068;2022-10-30T03:12:48;12.23;;;5.75;;
71838;SDS011;59687;37.520;15.068;2022-10-30T03:15:14;9.15;;;5.03;;
71838;SDS011;59687;37.520;15.068;2022-10-30T03:17:42;11.85;;;4.95;;
71838;SDS011;59687;37.520;15.068;2022-10-30T03:20:09;12.03;;;5.10;;
71838;SDS011;59687;37.520;15.068;2022-10-30T03:22:37;12.50;;;5.32;;
71838;SDS011;59687;37.520;15.068;2022-10-30T03:25:04;9.68;;;4.68;;
71838;SDS011;59687;37.520;15.068;2022-10-30T03:27:32;10.50;;;5.20;;
71838;SDS011;59687;37.520;15.068;2022-10-30T03:30:01;7.82;;;4.43;;
71838;SDS011;59687;37.520;15.068;2022-10-30T03:32:29;10.60;;;4.93;;
71838;SDS011;59687;37.520;15.068;2022-10-30T03:34:58;11.55;;;4.93;;
71838;SDS011;59687;37.520;15.068;2022-10-30T03:37:25;10.55;;;5.40;;
71838;SDS011;59687;37.520;15.068;2022-10-30T03:39:53;11.52;;;5.38;;
71838;SDS011;59687;37.520;15.068;2022-10-30T03:42:21;10.07;;;5.07;;
71838;SDS011;59687;37.520;15.068;2022-10-30T03:44:50;10.97;;;5.27;;
71838;SDS011;59687;37.520;15.068;2022-10-30T03:47:17;8.82;;;4.63;;
71838;SDS011;59687;37.520;15.068;2022-10-30T03:49:44;12.52;;;5.45;;
71838;SDS011;59687;37.520;15.068;2022-10-30T03:52:16;10.82;;;5.20;;
71838;SDS011;59687;37.520;15.068;2022-10-30T03:54:43;9.18;;;5.03;;
71838;SDS011;59687;37.520;15.068;2022-10-30T03:57:12;9.47;;;5.20;;
71838;SDS011;59687;37.520;15.068;2022-10-30T03:59:59;7.57;;;4.50;;
71838;SDS011;59687;37.520;15.068;2022-10-30T04:02:50;10.07;;;4.40;;
71838;SDS011;59687;37.520;15.068;2022-10-30T04:05:19;10.15;;;4.63;;
71838;SDS011;59687;37.520;15.068;2022-10-30T04:07:57;8.68;;;4.07;;
71838;SDS011;59687;37.520;15.068;2022-10-30T04:10:33;8.43;;;4.37;;
71838;SDS011;59687;37.520;15.068;2022-10-30T04:13:07;7.57;;;3.88;;
71838;SDS011;59687;37.520;15.068;2022-10-30T04:15:43;8.43;;;4.38;;
71838;SDS011;59687;37.520;15.068;2022-10-30T04:18:11;9.13;;;5.50;;
71838;SDS011;59687;37.520;15.068;2022-10-30T04:20:38;9.45;;;4.50;;
71838;SDS011;59687;37.520;15.068;2022-10-30T04:23:10;11.37;;;4.50;;
71838;SDS011;59687;37.520;15.068;2022-10-30T04:25:43;8.02;;;3.88;;
71838;SDS011;59687;37.520;15.068;2022-10-30T04:28:10;8.73;;;4.10;;
71838;SDS011;59687;37.520;15.068;2022-10-30T04:30:40;9.85;;;4.22;;
71838;SDS011;59687;37.520;15.068;2022-10-30T04:33:09;7.93;;;4.00;;
71838;SDS011;59687;37.520;15.068;2022-10-30T04:35:39;9.27;;;4.30;;
71838;SDS011;59687;37.520;15.068;2022-10-30T04:38:15;9.82;;;4.43;;
71838;SDS011;59687;37.520;15.068;2022-10-30T04:40:45;7.57;;;3.97;;
71838;SDS011;59687;37.520;15.068;2022-10-30T04:43:13;8.35;;;3.70;;
71838;SDS011;59687;37.520;15.068;2022-10-30T04:45:44;7.82;;;3.70;;
71838;SDS011;59687;37.520;15.068;2022-10-30T04:48:12;8.63;;;3.63;;
71838;SDS011;59687;37.520;15.068;2022-10-30T04:50:43;6.90;;;3.20;;
71838;SDS011;59687;37.520;15.068;2022-10-30T04:53:17;7.05;;;3.50;;
71838;SDS011;59687;37.520;15.068;2022-10-30T04:55:54;8.95;;;3.25;;
71838;SDS011;59687;37.520;15.068;2022-10-30T04:58:21;7.50;;;3.65;;
71838;SDS011;59687;37.520;15.068;2022-10-30T05:01:02;6.93;;;4.07;;
71838;SDS011;59687;37.520;15.068;2022-10-30T05:03:31;11.75;;;5.13;;
71838;SDS011;59687;37.520;15.068;2022-10-30T05:06:00;15.52;;;4.65;;
71838;SDS011;59687;37.520;15.068;2022-10-30T05:08:38;6.10;;;3.60;;
71838;SDS011;59687;37.520;15.068;2022-10-30T05:11:16;7.00;;;3.70;;
71838;SDS011;59687;37.520;15.068;2022-10-30T05:13:43;9.73;;;3.93;;
71838;SDS011;59687;37.520;15.068;2022-10-30T05:16:10;6.90;;;3.03;;
71838;SDS011;59687;37.520;15.068;2022-10-30T05:18:38;7.13;;;3.50;;
71838;SDS011;59687;37.520;15.068;2022-10-30T05:21:05;5.68;;;2.80;;
71838;SDS011;59687;37.520;15.068;2022-10-30T05:23:35;7.32;;;2.85;;
71838;SDS011;59687;37.520;15.068;2022-10-30T05:26:03;5.80;;;2.77;;
71838;SDS011;59687;37.520;15.068;2022-10-30T05:28:31;5.68;;;2.58;;
71838;SDS011;59687;37.520;15.068;2022-10-30T05:30:58;8.10;;;3.38;;
71838;SDS011;59687;37.520;15.068;2022-10-30T05:33:52;7.70;;;3.63;;
71838;SDS011;59687;37.520;15.068;2022-10-30T05:36:21;7.80;;;3.20;;
71838;SDS011;59687;37.520;15.068;2022-10-30T05:38:48;7.17;;;3.37;;
71838;SDS011;59687;37.520;15.068;2022-10-30T05:41:28;8.35;;;3.17;;
71838;SDS011;59687;37.520;15.068;2022-10-30T05:43:58;9.88;;;3.97;;
71838;SDS011;59687;37.520;15.068;2022-10-30T05:46:26;8.70;;;3.72;;
71838;SDS011;59687;37.520;15.068;2022-10-30T05:48:55;7.30;;;4.10;;
71838;SDS011;59687;37.520;15.068;2022-10-30T05:51:23;7.63;;;4.10;;
71838;SDS011;59687;37.520;15.068;2022-10-30T05:53:56;7.68;;;3.58;;
71838;SDS011;59687;37.520;15.068;2022-10-30T05:56:26;8.93;;;4.78;;
71838;SDS011;59687;37.520;15.068;2022-10-30T05:58:55;7.65;;;4.20;;
71838;SDS011;59687;37.520;15.068;2022-10-30T06:01:22;10.65;;;4.18;;
71838;SDS011;59687;37.520;15.068;2022-10-30T06:03:54;7.73;;;3.90;;
71838;SDS011;59687;37.520;15.068;2022-10-30T06:06:22;8.40;;;4.13;;
71838;SDS011;59687;37.520;15.068;2022-10-30T06:08:49;6.57;;;3.80;;
71838;SDS011;59687;37.520;15.068;2022-10-30T06:11:37;6.50;;;3.70;;
71838;SDS011;59687;37.520;15.068;2022-10-30T06:14:09;9.00;;;4.03;;
71838;SDS011;59687;37.520;15.068;2022-10-30T06:16:41;10.37;;;4.17;;
71838;SDS011;59687;37.520;15.068;2022-10-30T06:19:42;8.65;;;4.25;;
71838;SDS011;59687;37.520;15.068;2022-10-30T06:22:29;10.30;;;4.90;;
71838;SDS011;59687;37.520;15.068;2022-10-30T06:25:09;7.95;;;4.13;;
71838;SDS011;59687;37.520;15.068;2022-10-30T06:28:09;9.77;;;4.70;;
71838;SDS011;59687;37.520;15.068;2022-10-30T06:30:39;11.23;;;5.60;;
71838;SDS011;59687;37.520;15.068;2022-10-30T06:33:06;9.80;;;4.57;;
71838;SDS011;59687;37.520;15.068;2022-10-30T06:35:37;9.80;;;4.75;;
71838;SDS011;59687;37.520;15.068;2022-10-30T06:38:04;9.40;;;4.50;;
71838;SDS011;59687;37.520;15.068;2022-10-30T06:40:34;9.13;;;4.38;;
71838;SDS011;59687;37.520;15.068;2022-10-30T06:43:27;8.17;;;4.80;;
71838;SDS011;59687;37.520;15.068;2022-10-30T06:46:02;10.40;;;4.40;;
71838;SDS011;59687;37.520;15.068;2022-10-30T06:48:37;8.88;;;4.82;;
71838;SDS011;59687;37.520;15.068;2022-10-30T06:51:04;10.43;;;4.10;;
71838;SDS011;59687;37.520;15.068;2022-10-30T06:53:36;7.15;;;4.10;;
71838;SDS011;59687;37.520;15.068;2022-10-30T06:56:26;7.57;;;3.90;;
71838;SDS011;59687;37.520;15.068;2022-10-30T06:59:05;10.95;;;4.85;;
71838;SDS011;59687;37.520;15.068;2022-10-30T07:01:34;11.18;;;5.70;;
71838;SDS011;59687;37.520;15.068;2022-10-30T07:04:20;9.98;;;5.53;;
71838;SDS011;59687;37.520;15.068;2022-10-30T07:06:48;12.00;;;6.28;;
71838;SDS011;59687;37.520;15.068;2022-10-30T07:09:17;9.57;;;5.43;;
71838;SDS011;59687;37.520;15.068;2022-10-30T07:11:52;9.68;;;5.15;;
71838;SDS011;59687;37.520;15.068;2022-10-30T07:14:34;9.80;;;5.13;;
71838;SDS011;59687;37.520;15.068;2022-10-30T07:17:12;10.23;;;5.78;;
71838;SDS011;59687;37.520;15.068;2022-10-30T07:19:44;9.45;;;5.60;;
71838;SDS011;59687;37.520;15.068;2022-10-30T07:22:11;10.47;;;5.37;;
71838;SDS011;59687;37.520;15.068;2022-10-30T07:24:42;11.35;;;5.85;;
71838;SDS011;59687;37.520;15.068;2022-10-30T07:27:16;7.97;;;4.90;;
71838;SDS011;59687;37.520;15.068;2022-10-30T07:29:48;8.77;;;5.15;;
71838;SDS011;59687;37.520;15.068;2022-10-30T07:32:27;11.27;;;4.65;;
71838;SDS011;59687;37.520;15.068;2022-10-30T07:35:08;9.07;;;5.53;;
71838;SDS011;59687;37.520;15.068;2022-10-30T07:37:55;11.93;;;6.30;;
71838;SDS011;59687;37.520;15.068;2022-10-30T07:40:37;10.98;;;6.80;;
71838;SDS011;59687;37.520;15.068;2022-10-30T07:43:12;12.43;;;5.80;;
71838;SDS011;59687;37.520;15.068;2022-10-30T07:46:04;10.05;;;5.75;;
71838;SDS011;59687;37.520;15.068;2022-10-30T07:48:54;9.57;;;5.50;;
71838;SDS011;59687;37.520;15.068;2022-10-30T07:51:33;10.75;;;5.95;;
71838;SDS011;59687;37.520;15.068;2022-10-30T07:54:01;10.90;;;6.30;;
71838;SDS011;59687;37.520;15.068;2022-10-30T07:56:31;11.32;;;5.55;;
71838;SDS011;59687;37.520;15.068;2022-10-30T07:59:18;10.48;;;5.80;;
71838;SDS011;59687;37.520;15.068;2022-10-30T08:02:20;9.80;;;5.37;;
71838;SDS011;59687;37.520;15.068;2022-10-30T08:05:12;10.20;;;6.00;;
71838;SDS011;59687;37.520;15.068;2022-10-30T08:07:58;10.75;;;5.40;;
71838;SDS011;59687;37.520;15.068;2022-10-30T08:10:25;9.23;;;5.53;;
71838;SDS011;59687;37.520;15.068;2022-10-30T08:12:52;7.93;;;5.35;;
71838;SDS011;59687;37.520;15.068;2022-10-30T08:15:20;9.40;;;5.33;;
71838;SDS011;59687;37.520;15.068;2022-10-30T08:17:48;9.88;;;5.15;;
71838;SDS011;59687;37.520;15.068;2022-10-30T08:20:19;8.15;;;5.45;;
71838;SDS011;59687;37.520;15.068;2022-10-30T08:22:54;8.80;;;4.93;;
71838;SDS011;59687;37.520;15.068;2022-10-30T08:25:27;10.55;;;5.38;;
71838;SDS011;59687;37.520;15.068;2022-10-30T08:27:58;12.00;;;5.50;;
71838;SDS011;59687;37.520;15.068;2022-10-30T08:30:32;8.02;;;4.75;;
71838;SDS011;59687;37.520;15.068;2022-10-30T08:33:02;9.93;;;5.00;;
71838;SDS011;59687;37.520;15.068;2022-10-30T08:35:55;13.52;;;5.80;;
71838;SDS011;59687;37.520;15.068;2022-10-30T08:38:25;8.07;;;4.90;;
71838;SDS011;59687;37.520;15.068;2022-10-30T08:41:12;9.67;;;4.73;;
71838;SDS011;59687;37.520;15.068;2022-10-30T08:43:50;7.00;;;4.28;;
71838;SDS011;59687;37.520;15.068;2022-10-30T08:46:18;8.23;;;4.57;;
71838;SDS011;59687;37.520;15.068;2022-10-30T08:48:45;7.97;;;4.13;;
71838;SDS011;59687;37.520;15.068;2022-10-30T08:51:12;7.95;;;3.95;;
71838;SDS011;59687;37.520;15.068;2022-10-30T08:53:43;7.87;;;3.20;;
71838;SDS011;59687;37.520;15.068;2022-10-30T08:56:12;9.55;;;4.20;;
71838;SDS011;59687;37.520;15.068;2022-10-30T08:58:52;9.30;;;4.45;;
71838;SDS011;59687;37.520;15.068;2022-10-30T09:01:21;7.75;;;4.25;;
71838;SDS011;59687;37.520;15.068;2022-10-30T09:04:10;7.63;;;4.30;;
71838;SDS011;59687;37.520;15.068;2022-10-30T09:06:59;8.47;;;4.90;;
71838;SDS011;59687;37.520;15.068;2022-10-30T09:09:45;8.43;;;5.03;;
71838;SDS011;59687;37.520;15.068;2022-10-30T09:12:12;8.75;;;5.25;;
71838;SDS011;59687;37.520;15.068;2022-10-30T09:14:42;9.68;;;4.97;;
71838;SDS011;59687;37.520;15.068;2022-10-30T09:17:10;8.60;;;5.38;;
71838;SDS011;59687;37.520;15.068;2022-10-30T09:19:42;8.67;;;6.00;;
71838;SDS011;59687;37.520;15.068;2022-10-30T09:22:15;8.25;;;4.25;;
71838;SDS011;59687;37.520;15.068;2022-10-30T09:24:44;9.05;;;5.22;;
71838;SDS011;59687;37.520;15.068;2022-10-30T09:27:43;12.00;;;5.60;;
71838;SDS011;59687;37.520;15.068;2022-10-30T09:30:14;9.23;;;5.32;;
71838;SDS011;59687;37.520;15.068;2022-10-30T09:32:45;9.13;;;5.17;;
71838;SDS011;59687;37.520;15.068;2022-10-30T09:35:18;8.50;;;5.28;;
71838;SDS011;59687;37.520;15.068;2022-10-30T09:37:45;8.73;;;5.13;;
71838;SDS011;59687;37.520;15.068;2022-10-30T09:40:18;8.13;;;5.00;;
71838;SDS011;59687;37.520;15.068;2022-10-30T09:43:47;9.63;;;4.90;;
71838;SDS011;59687;37.520;15.068;2022-10-30T09:51:58;8.23;;;3.72;;
71838;SDS011;59687;37.520;15.068;2022-10-30T09:54:34;10.18;;;4.15;;
71838;SDS011;59687;37.520;15.068;2022-10-30T10:02:51;8.77;;;4.28;;
71838;SDS011;59687;37.520;15.068;2022-10-30T10:05:43;7.05;;;4.32;;
71838;SDS011;59687;37.520;15.068;2022-10-30T10:08:58;8.13;;;4.57;;
71838;SDS011;59687;37.520;15.068;2022-10-30T10:12:32;10.95;;;5.07;;
71838;SDS011;59687;37.520;15.068;2022-10-30T10:15:16;9.17;;;5.10;;
71838;SDS011;59687;37.520;15.068;2022-10-30T10:17:55;6.68;;;4.03;;
71838;SDS011;59687;37.520;15.068;2022-10-30T10:20:36;5.88;;;3.88;;
71838;SDS011;59687;37.520;15.068;2022-10-30T10:23:18;6.88;;;3.75;;
71838;SDS011;59687;37.520;15.068;2022-10-30T10:25:52;6.00;;;3.70;;
71838;SDS011;59687;37.520;15.068;2022-10-30T10:28:25;8.40;;;3.40;;
71838;SDS011;59687;37.520;15.068;2022-10-30T10:39:49;6.10;;;3.10;;
71838;SDS011;59687;37.520;15.068;2022-10-30T10:50:50;6.80;;;3.25;;
71838;SDS011;59687;37.520;15.068;2022-10-30T10:53:41;6.28;;;3.42;;
71838;SDS011;59687;37.520;15.068;2022-10-30T10:56:14;7.07;;;3.20;;
71838;SDS011;59687;37.520;15.068;2022-10-30T10:58:45;5.43;;;3.28;;
71838;SDS011;59687;37.520;15.068;2022-10-30T11:01:25;6.88;;;3.47;;
71838;SDS011;59687;37.520;15.068;2022-10-30T11:07:05;5.97;;;3.17;;
71838;SDS011;59687;37.520;15.068;2022-10-30T11:09:44;6.40;;;3.83;;
71838;SDS011;59687;37.520;15.068;2022-10-30T11:12:12;6.05;;;3.35;;
71838;SDS011;59687;37.520;15.068;2022-10-30T11:14:39;6.93;;;3.53;;
71838;SDS011;59687;37.520;15.068;2022-10-30T11:19:59;7.22;;;3.35;;
71838;SDS011;59687;37.520;15.068;2022-10-30T11:22:37;6.77;;;3.20;;
71838;SDS011;59687;37.520;15.068;2022-10-30T11:25:18;5.53;;;3.22;;
71838;SDS011;59687;37.520;15.068;2022-10-30T11:27:54;6.90;;;3.47;;
71838;SDS011;59687;37.520;15.068;2022-10-30T11:30:23;7.03;;;3.53;;
71838;SDS011;59687;37.520;15.068;2022-10-30T11:32:54;5.95;;;2.92;;
71838;SDS011;59687;37.520;15.068;2022-10-30T11:35:22;6.33;;;3.33;;
71838;SDS011;59687;37.520;15.068;2022-10-30T11:37:50;5.80;;;3.05;;
71838;SDS011;59687;37.520;15.068;2022-10-30T11:40:19;5.65;;;3.35;;
71838;SDS011;59687;37.520;15.068;2022-10-30T11:43:03;5.63;;;3.38;;
71838;SDS011;59687;37.520;15.068;2022-10-30T11:45:31;7.80;;;3.13;;
71838;SDS011;59687;37.520;15.068;2022-10-30T11:48:08;6.30;;;3.23;;
71838;SDS011;59687;37.520;15.068;2022-10-30T11:50:47;6.07;;;2.83;;
71838;SDS011;59687;37.520;15.068;2022-10-30T11:53:20;7.80;;;3.30;;
71838;SDS011;59687;37.520;15.068;2022-10-30T11:55:56;8.65;;;3.00;;
71838;SDS011;59687;37.520;15.068;2022-10-30T11:58:32;6.78;;;3.17;;
71838;SDS011;59687;37.520;15.068;2022-10-30T12:01:04;6.63;;;2.97;;
71838;SDS011;59687;37.520;15.068;2022-10-30T12:03:53;7.18;;;3.13;;
71838;SDS011;59687;37.520;15.068;2022-10-30T12:11:37;6.20;;;3.30;;
71838;SDS011;59687;37.520;15.068;2022-10-30T12:16:51;6.40;;;3.35;;
71838;SDS011;59687;37.520;15.068;2022-10-30T12:19:22;5.78;;;3.72;;
71838;SDS011;59687;37.520;15.068;2022-10-30T12:21:51;7.97;;;3.40;;
71838;SDS011;59687;37.520;15.068;2022-10-30T12:24:27;7.13;;;3.15;;
71838;SDS011;59687;37.520;15.068;2022-10-30T12:26:59;7.07;;;3.27;;
71838;SDS011;59687;37.520;15.068;2022-10-30T12:32:57;7.03;;;3.58;;
71838;SDS011;59687;37.520;15.068;2022-10-30T12:38:01;6.72;;;3.30;;
71838;SDS011;59687;37.520;15.068;2022-10-30T12:40:35;6.67;;;3.20;;
71838;SDS011;59687;37.520;15.068;2022-10-30T12:45:41;6.63;;;3.22;;
71838;SDS011;59687;37.520;15.068;2022-10-30T12:56:32;8.05;;;3.17;;
71838;SDS011;59687;37.520;15.068;2022-10-30T13:04:39;6.60;;;3.40;;
71838;SDS011;59687;37.520;15.068;2022-10-30T13:07:12;6.30;;;3.60;;
71838;SDS011;59687;37.520;15.068;2022-10-30T13:10:00;8.63;;;3.60;;
71838;SDS011;59687;37.520;15.068;2022-10-30T13:12:46;7.60;;;4.00;;
71838;SDS011;59687;37.520;15.068;2022-10-30T13:15:24;6.10;;;2.90;;
71838;SDS011;59687;37.520;15.068;2022-10-30T13:17:59;8.55;;;3.13;;
71838;SDS011;59687;37.520;15.068;2022-10-30T13:21:30;6.43;;;3.20;;
71838;SDS011;59687;37.520;15.068;2022-10-30T13:26:31;6.45;;;3.25;;
71838;SDS011;59687;37.520;15.068;2022-10-30T13:29:05;7.13;;;2.85;;
71838;SDS011;59687;37.520;15.068;2022-10-30T13:31:45;6.97;;;3.00;;
71838;SDS011;59687;37.520;15.068;2022-10-30T13:34:44;6.40;;;3.23;;
71838;SDS011;59687;37.520;15.068;2022-10-30T13:37:35;6.78;;;3.33;;
71838;SDS011;59687;37.520;15.068;2022-10-30T13:42:58;8.55;;;3.55;;
71838;SDS011;59687;37.520;15.068;2022-10-30T13:51:40;5.90;;;3.17;;
71838;SDS011;59687;37.520;15.068;2022-10-30T13:56:41;6.60;;;3.53;;
71838;SDS011;59687;37.520;15.068;2022-10-30T13:59:36;7.68;;;3.45;;
71838;SDS011;59687;37.520;15.068;2022-10-30T14:02:26;5.57;;;3.20;;
71838;SDS011;59687;37.520;15.068;2022-10-30T14:06:17;6.82;;;3.05;;
71838;SDS011;59687;37.520;15.068;2022-10-30T14:11:06;7.03;;;3.58;;
71838;SDS011;59687;37.520;15.068;2022-10-30T14:16:32;8.10;;;3.90;;
71838;SDS011;59687;37.520;15.068;2022-10-30T14:19:14;6.07;;;3.08;;
71838;SDS011;59687;37.520;15.068;2022-10-30T14:21:55;6.90;;;3.60;;
71838;SDS011;59687;37.520;15.068;2022-10-30T14:24:33;11.85;;;4.55;;
71838;SDS011;59687;37.520;15.068;2022-10-30T14:29:40;6.27;;;3.57;;
71838;SDS011;59687;37.520;15.068;2022-10-30T14:34:43;8.48;;;4.43;;
71838;SDS011;59687;37.520;15.068;2022-10-30T14:37:12;8.85;;;4.70;;
71838;SDS011;59687;37.520;15.068;2022-10-30T14:39:43;7.57;;;4.55;;
71838;SDS011;59687;37.520;15.068;2022-10-30T14:47:38;8.18;;;4.63;;
71838;SDS011;59687;37.520;15.068;2022-10-30T14:56:40;11.00;;;5.03;;
71838;SDS011;59687;37.520;15.068;2022-10-30T15:07:51;10.82;;;5.57;;
71838;SDS011;59687;37.520;15.068;2022-10-30T15:15:36;10.20;;;5.90;;
71838;SDS011;59687;37.520;15.068;2022-10-30T15:18:07;10.65;;;6.13;;
71838;SDS011;59687;37.520;15.068;2022-10-30T15:20:51;9.13;;;5.50;;
71838;SDS011;59687;37.520;15.068;2022-10-30T15:23:24;11.70;;;5.83;;
71838;SDS011;59687;37.520;15.068;2022-10-30T15:25:57;11.85;;;6.25;;
71838;SDS011;59687;37.520;15.068;2022-10-30T15:28:28;10.00;;;5.53;;
71838;SDS011;59687;37.520;15.068;2022-10-30T15:31:02;9.60;;;5.65;;
71838;SDS011;59687;37.520;15.068;2022-10-30T15:33:45;8.23;;;5.93;;
71838;SDS011;59687;37.520;15.068;2022-10-30T15:36:16;9.07;;;5.80;;
71838;SDS011;59687;37.520;15.068;2022-10-30T15:38:44;10.70;;;6.10;;
71838;SDS011;59687;37.520;15.068;2022-10-30T15:41:33;9.32;;;5.68;;
71838;SDS011;59687;37.520;15.068;2022-10-30T15:44:05;10.32;;;6.00;;
71838;SDS011;59687;37.520;15.068;2022-10-30T15:46:33;10.13;;;5.75;;
71838;SDS011;59687;37.520;15.068;2022-10-30T15:49:00;10.80;;;6.63;;
71838;SDS011;59687;37.520;15.068;2022-10-30T15:51:27;14.02;;;6.28;;
71838;SDS011;59687;37.520;15.068;2022-10-30T15:53:55;11.60;;;6.80;;
71838;SDS011;59687;37.520;15.068;2022-10-30T15:59:27;12.50;;;6.43;;
71838;SDS011;59687;37.520;15.068;2022-10-30T16:02:00;13.47;;;6.33;;
71838;SDS011;59687;37.520;15.068;2022-10-30T16:04:34;15.18;;;6.85;;
71838;SDS011;59687;37.520;15.068;2022-10-30T16:07:20;14.02;;;7.03;;
71838;SDS011;59687;37.520;15.068;2022-10-30T16:09:53;11.75;;;7.00;;
71838;SDS011;59687;37.520;15.068;2022-10-30T16:12:25;10.88;;;6.68;;
71838;SDS011;59687;37.520;15.068;2022-10-30T16:14:53;12.03;;;7.00;;
71838;SDS011;59687;37.520;15.068;2022-10-30T16:17:23;12.68;;;6.72;;
71838;SDS011;59687;37.520;15.068;2022-10-30T16:19:53;11.18;;;6.75;;
71838;SDS011;59687;37.520;15.068;2022-10-30T16:22:28;11.20;;;6.55;;
71838;SDS011;59687;37.520;15.068;2022-10-30T16:25:00;11.82;;;6.93;;
71838;SDS011;59687;37.520;15.068;2022-10-30T16:27:32;12.67;;;6.90;;
71838;SDS011;59687;37.520;15.068;2022-10-30T16:29:59;9.90;;;6.50;;
71838;SDS011;59687;37.520;15.068;2022-10-30T16:32:28;13.38;;;6.90;;
71838;SDS011;59687;37.520;15.068;2022-10-30T16:34:57;12.02;;;6.40;;
71838;SDS011;59687;37.520;15.068;2022-10-30T16:37:32;13.18;;;7.38;;
71838;SDS011;59687;37.520;15.068;2022-10-30T16:40:04;12.10;;;6.50;;
71838;SDS011;59687;37.520;15.068;2022-10-30T16:42:43;12.85;;;7.93;;
71838;SDS011;59687;37.520;15.068;2022-10-30T16:47:46;15.93;;;9.40;;
71838;SDS011;59687;37.520;15.068;2022-10-30T16:50:32;43.15;;;33.50;;
71838;SDS011;59687;37.520;15.068;2022-10-30T16:53:04;64.53;;;49.83;;
71838;SDS011;59687;37.520;15.068;2022-10-30T16:55:40;43.08;;;35.63;;
71838;SDS011;59687;37.520;15.068;2022-10-30T16:58:16;25.65;;;19.13;;
71838;SDS011;59687;37.520;15.068;2022-10-30T17:01:10;18.80;;;10.77;;
71838;SDS011;59687;37.520;15.068;2022-10-30T17:03:37;13.55;;;7.70;;
71838;SDS011;59687;37.520;15.068;2022-10-30T17:06:22;14.03;;;8.00;;
71838;SDS011;59687;37.520;15.068;2022-10-30T17:09:25;13.90;;;7.78;;
71838;SDS011;59687;37.520;15.068;2022-10-30T17:14:51;14.45;;;7.63;;
71838;SDS011;59687;37.520;15.068;2022-10-30T17:17:22;14.30;;;7.40;;
71838;SDS011;59687;37.520;15.068;2022-10-30T17:19:54;12.10;;;7.33;;
71838;SDS011;59687;37.520;15.068;2022-10-30T17:22:43;14.50;;;8.18;;
71838;SDS011;59687;37.520;15.068;2022-10-30T17:25:16;12.52;;;7.53;;
71838;SDS011;59687;37.520;15.068;2022-10-30T17:28:03;13.77;;;8.80;;
71838;SDS011;59687;37.520;15.068;2022-10-30T17:30:39;12.73;;;6.65;;
71838;SDS011;59687;37.520;15.068;2022-10-30T17:34:02;13.67;;;8.43;;
71838;SDS011;59687;37.520;15.068;2022-10-30T17:36:07;11.30;;;7.28;;
71838;SDS011;59687;37.520;15.068;2022-10-30T17:38:37;13.73;;;8.60;;
71838;SDS011;59687;37.520;15.068;2022-10-30T17:41:04;13.20;;;9.35;;
71838;SDS011;59687;37.520;15.068;2022-10-30T17:43:33;14.80;;;8.65;;
71838;SDS011;59687;37.520;15.068;2022-10-30T17:46:15;13.13;;;7.77;;
71838;SDS011;59687;37.520;15.068;2022-10-30T17:48:46;12.25;;;8.32;;
71838;SDS011;59687;37.520;15.068;2022-10-30T17:51:14;13.98;;;8.75;;